sensor_id;sensor_type;location;lat;lon;timestamp;temperature;humidity
24860;DHT22;12936;52.006;4.350;2022-12-29T00:01:19;11.10;99.90
24860;DHT22;12936;52.006;4.350;2022-12-29T00:03:47;11.00;99.90
24860;DHT22;12936;52.006;4.350;2022-12-29T00:06:17;11.10;99.90
24860;DHT22;12936;52.006;4.350;2022-12-29T00:08:45;11.00;99.90
24860;DHT22;12936;52.006;4.350;2022-12-29T00:11:14;11.00;99.90
24860;DHT22;12936;52.006;4.350;2022-12-29T00:13:46;11.00;99.90
24860;DHT22;12936;52.006;4.350;2022-12-29T00:16:32;11.00;99.90
24860;DHT22;12936;52.006;4.350;2022-12-29T00:19:01;11.00;99.90
24860;DHT22;12936;52.006;4.350;2022-12-29T00:21:31;11.00;99.90
24860;DHT22;12936;52.006;4.350;2022-12-29T00:24:19;11.10;99.90
24860;DHT22;12936;52.006;4.350;2022-12-29T00:27:11;11.10;99.90
24860;DHT22;12936;52.006;4.350;2022-12-29T00:29:57;11.10;99.90
24860;DHT22;12936;52.006;4.350;2022-12-29T00:32:43;11.10;99.90
24860;DHT22;12936;52.006;4.350;2022-12-29T00:35:31;11.10;99.90
24860;DHT22;12936;52.006;4.350;2022-12-29T00:38:05;11.00;99.90
24860;DHT22;12936;52.006;4.350;2022-12-29T00:40:51;11.00;99.90
24860;DHT22;12936;52.006;4.350;2022-12-29T00:43:37;11.00;99.90
24860;DHT22;12936;52.006;4.350;2022-12-29T00:46:22;11.10;99.90
24860;DHT22;12936;52.006;4.350;2022-12-29T00:48:50;11.10;99.90
24860;DHT22;12936;52.006;4.350;2022-12-29T00:51:36;11.10;99.90
24860;DHT22;12936;52.006;4.350;2022-12-29T00:54:05;11.10;99.90
24860;DHT22;12936;52.006;4.350;2022-12-29T00:56:33;11.00;99.90
24860;DHT22;12936;52.006;4.350;2022-12-29T00:59:02;11.00;99.90
24860;DHT22;12936;52.006;4.350;2022-12-29T01:01:30;11.00;99.90
24860;DHT22;12936;52.006;4.350;2022-12-29T01:03:58;11.10;99.90
24860;DHT22;12936;52.006;4.350;2022-12-29T01:06:30;11.00;99.90
24860;DHT22;12936;52.006;4.350;2022-12-29T01:08:59;11.00;99.90
24860;DHT22;12936;52.006;4.350;2022-12-29T01:11:45;11.00;99.90
24860;DHT22;12936;52.006;4.350;2022-12-29T01:14:14;11.00;99.90
24860;DHT22;12936;52.006;4.350;2022-12-29T01:16:43;10.90;99.90
24860;DHT22;12936;52.006;4.350;2022-12-29T01:19:12;11.00;99.90
24860;DHT22;12936;52.006;4.350;2022-12-29T01:21:40;11.00;99.90
24860;DHT22;12936;52.006;4.350;2022-12-29T01:24:08;11.00;99.90
24860;DHT22;12936;52.006;4.350;2022-12-29T01:26:36;11.00;99.90
24860;DHT22;12936;52.006;4.350;2022-12-29T01:29:05;11.00;99.90
24860;DHT22;12936;52.006;4.350;2022-12-29T01:31:33;11.00;99.90
24860;DHT22;12936;52.006;4.350;2022-12-29T01:34:01;11.00;99.90
24860;DHT22;12936;52.006;4.350;2022-12-29T01:36:30;11.00;99.90
24860;DHT22;12936;52.006;4.350;2022-12-29T01:38:58;11.00;99.90
24860;DHT22;12936;52.006;4.350;2022-12-29T01:41:26;11.00;99.90
24860;DHT22;12936;52.006;4.350;2022-12-29T01:43:56;11.00;99.90
24860;DHT22;12936;52.006;4.350;2022-12-29T01:46:30;11.00;99.90
24860;DHT22;12936;52.006;4.350;2022-12-29T01:49:05;11.00;99.90
24860;DHT22;12936;52.006;4.350;2022-12-29T01:51:41;11.00;99.90
24860;DHT22;12936;52.006;4.350;2022-12-29T01:54:13;11.00;99.90
24860;DHT22;12936;52.006;4.350;2022-12-29T01:56:44;11.00;99.90
24860;DHT22;12936;52.006;4.350;2022-12-29T01:59:15;11.00;99.90
24860;DHT22;12936;52.006;4.350;2022-12-29T02:01:45;11.00;99.90
24860;DHT22;12936;52.006;4.350;2022-12-29T02:04:14;11.00;99.90
24860;DHT22;12936;52.006;4.350;2022-12-29T02:06:47;10.90;99.90
24860;DHT22;12936;52.006;4.350;2022-12-29T02:09:17;10.90;99.90
24860;DHT22;12936;52.006;4.350;2022-12-29T02:11:46;11.00;99.90
24860;DHT22;12936;52.006;4.350;2022-12-29T02:14:15;11.00;99.90
24860;DHT22;12936;52.006;4.350;2022-12-29T02:16:58;11.00;99.90
24860;DHT22;12936;52.006;4.350;2022-12-29T02:19:54;11.00;99.90
24860;DHT22;12936;52.006;4.350;2022-12-29T02:22:32;11.10;99.90
24860;DHT22;12936;52.006;4.350;2022-12-29T02:25:43;11.10;99.90
24860;DHT22;12936;52.006;4.350;2022-12-29T02:28:38;11.00;99.90
24860;DHT22;12936;52.006;4.350;2022-12-29T02:31:17;10.90;99.90
24860;DHT22;12936;52.006;4.350;2022-12-29T02:33:55;10.90;99.90
24860;DHT22;12936;52.006;4.350;2022-12-29T02:36:36;10.80;99.90
24860;DHT22;12936;52.006;4.350;2022-12-29T02:39:12;10.70;99.90
24860;DHT22;12936;52.006;4.350;2022-12-29T02:41:51;10.70;99.90
24860;DHT22;12936;52.006;4.350;2022-12-29T02:44:29;10.60;99.90
24860;DHT22;12936;52.006;4.350;2022-12-29T02:47:08;10.60;99.90
24860;DHT22;12936;52.006;4.350;2022-12-29T02:49:42;10.60;99.90
24860;DHT22;12936;52.006;4.350;2022-12-29T02:52:18;10.50;99.90
24860;DHT22;12936;52.006;4.350;2022-12-29T02:54:48;10.50;99.90
24860;DHT22;12936;52.006;4.350;2022-12-29T02:57:30;10.50;99.90
24860;DHT22;12936;52.006;4.350;2022-12-29T03:00:03;10.50;99.90
24860;DHT22;12936;52.006;4.350;2022-12-29T03:02:44;10.40;99.90
24860;DHT22;12936;52.006;4.350;2022-12-29T03:05:22;10.50;99.90
24860;DHT22;12936;52.006;4.350;2022-12-29T03:07:55;10.50;99.90
24860;DHT22;12936;52.006;4.350;2022-12-29T03:10:33;10.50;99.90
24860;DHT22;12936;52.006;4.350;2022-12-29T03:13:10;10.50;99.90
24860;DHT22;12936;52.006;4.350;2022-12-29T03:16:04;10.50;99.90
24860;DHT22;12936;52.006;4.350;2022-12-29T03:18:46;10.50;99.90
24860;DHT22;12936;52.006;4.350;2022-12-29T03:21:21;10.40;99.90
24860;DHT22;12936;52.006;4.350;2022-12-29T03:24:13;10.40;99.90
24860;DHT22;12936;52.006;4.350;2022-12-29T03:26:45;10.40;99.90
24860;DHT22;12936;52.006;4.350;2022-12-29T03:29:15;10.40;99.90
24860;DHT22;12936;52.006;4.350;2022-12-29T03:31:45;10.40;99.90
24860;DHT22;12936;52.006;4.350;2022-12-29T03:34:16;10.30;99.90
24860;DHT22;12936;52.006;4.350;2022-12-29T03:36:50;10.40;99.90
24860;DHT22;12936;52.006;4.350;2022-12-29T03:39:21;10.30;99.90
24860;DHT22;12936;52.006;4.350;2022-12-29T03:41:56;10.40;99.90
24860;DHT22;12936;52.006;4.350;2022-12-29T03:44:32;10.40;99.90
24860;DHT22;12936;52.006;4.350;2022-12-29T03:47:00;10.40;99.90
24860;DHT22;12936;52.006;4.350;2022-12-29T03:49:30;10.30;99.90
24860;DHT22;12936;52.006;4.350;2022-12-29T03:51:58;10.30;99.90
24860;DHT22;12936;52.006;4.350;2022-12-29T03:54:26;10.40;99.90
24860;DHT22;12936;52.006;4.350;2022-12-29T03:56:54;10.30;99.90
24860;DHT22;12936;52.006;4.350;2022-12-29T03:59:22;10.30;99.90
24860;DHT22;12936;52.006;4.350;2022-12-29T04:01:50;10.30;99.90
24860;DHT22;12936;52.006;4.350;2022-12-29T04:04:18;10.20;99.90
24860;DHT22;12936;52.006;4.350;2022-12-29T04:06:48;10.30;99.90
24860;DHT22;12936;52.006;4.350;2022-12-29T04:09:16;10.20;99.90
24860;DHT22;12936;52.006;4.350;2022-12-29T04:11:44;10.10;99.90
24860;DHT22;12936;52.006;4.350;2022-12-29T04:14:12;10.10;99.90
24860;DHT22;12936;52.006;4.350;2022-12-29T04:16:41;10.10;99.90
24860;DHT22;12936;52.006;4.350;2022-12-29T04:19:09;10.10;99.90
24860;DHT22;12936;52.006;4.350;2022-12-29T04:21:37;10.00;99.90
24860;DHT22;12936;52.006;4.350;2022-12-29T04:24:06;10.00;99.90
24860;DHT22;12936;52.006;4.350;2022-12-29T04:26:34;10.00;99.90
24860;DHT22;12936;52.006;4.350;2022-12-29T04:29:02;9.90;99.90
24860;DHT22;12936;52.006;4.350;2022-12-29T04:31:30;10.00;99.90
24860;DHT22;12936;52.006;4.350;2022-12-29T04:34:00;10.00;99.90
24860;DHT22;12936;52.006;4.350;2022-12-29T04:36:28;10.00;99.90
24860;DHT22;12936;52.006;4.350;2022-12-29T04:38:56;10.00;99.90
24860;DHT22;12936;52.006;4.350;2022-12-29T04:41:26;9.90;99.90
24860;DHT22;12936;52.006;4.350;2022-12-29T04:43:54;9.90;99.90
24860;DHT22;12936;52.006;4.350;2022-12-29T04:46:22;10.00;99.90
24860;DHT22;12936;52.006;4.350;2022-12-29T04:48:50;9.90;99.90
24860;DHT22;12936;52.006;4.350;2022-12-29T04:51:18;9.90;99.90
24860;DHT22;12936;52.006;4.350;2022-12-29T04:53:46;10.00;99.90
24860;DHT22;12936;52.006;4.350;2022-12-29T04:56:14;10.00;99.90
24860;DHT22;12936;52.006;4.350;2022-12-29T04:58:45;9.90;99.90
24860;DHT22;12936;52.006;4.350;2022-12-29T05:01:13;9.90;99.90
24860;DHT22;12936;52.006;4.350;2022-12-29T05:03:41;9.90;99.90
24860;DHT22;12936;52.006;4.350;2022-12-29T05:06:09;9.90;99.90
24860;DHT22;12936;52.006;4.350;2022-12-29T05:08:38;10.00;99.90
24860;DHT22;12936;52.006;4.350;2022-12-29T05:11:06;9.90;99.90
24860;DHT22;12936;52.006;4.350;2022-12-29T05:13:34;10.00;99.90
24860;DHT22;12936;52.006;4.350;2022-12-29T05:16:03;10.00;99.90
24860;DHT22;12936;52.006;4.350;2022-12-29T05:18:31;9.90;99.90
24860;DHT22;12936;52.006;4.350;2022-12-29T05:20:59;10.00;99.90
24860;DHT22;12936;52.006;4.350;2022-12-29T05:23:28;10.00;99.90
24860;DHT22;12936;52.006;4.350;2022-12-29T05:25:55;10.00;99.90
24860;DHT22;12936;52.006;4.350;2022-12-29T05:28:23;10.00;99.90
24860;DHT22;12936;52.006;4.350;2022-12-29T05:30:51;10.00;99.90
24860;DHT22;12936;52.006;4.350;2022-12-29T05:33:21;10.00;99.90
24860;DHT22;12936;52.006;4.350;2022-12-29T05:35:49;10.00;99.90
24860;DHT22;12936;52.006;4.350;2022-12-29T05:38:16;9.90;99.90
24860;DHT22;12936;52.006;4.350;2022-12-29T05:40:45;9.90;99.90
24860;DHT22;12936;52.006;4.350;2022-12-29T05:43:13;9.90;99.90
24860;DHT22;12936;52.006;4.350;2022-12-29T05:45:41;9.90;99.90
24860;DHT22;12936;52.006;4.350;2022-12-29T05:48:09;9.90;99.90
24860;DHT22;12936;52.006;4.350;2022-12-29T05:50:38;9.90;99.90
24860;DHT22;12936;52.006;4.350;2022-12-29T05:53:06;9.90;99.90
24860;DHT22;12936;52.006;4.350;2022-12-29T05:55:34;9.90;99.90
24860;DHT22;12936;52.006;4.350;2022-12-29T05:58:02;9.80;99.90
24860;DHT22;12936;52.006;4.350;2022-12-29T06:00:30;9.80;99.90
24860;DHT22;12936;52.006;4.350;2022-12-29T06:02:58;9.80;99.90
24860;DHT22;12936;52.006;4.350;2022-12-29T06:05:27;9.80;99.90
24860;DHT22;12936;52.006;4.350;2022-12-29T06:07:56;9.80;99.90
24860;DHT22;12936;52.006;4.350;2022-12-29T06:10:24;9.90;99.90
24860;DHT22;12936;52.006;4.350;2022-12-29T06:12:52;9.80;99.90
24860;DHT22;12936;52.006;4.350;2022-12-29T06:15:21;9.80;99.90
24860;DHT22;12936;52.006;4.350;2022-12-29T06:17:48;9.70;99.90
24860;DHT22;12936;52.006;4.350;2022-12-29T06:20:17;9.80;99.90
24860;DHT22;12936;52.006;4.350;2022-12-29T06:22:45;9.70;99.90
24860;DHT22;12936;52.006;4.350;2022-12-29T06:25:14;9.70;99.90
24860;DHT22;12936;52.006;4.350;2022-12-29T06:27:43;9.70;99.90
24860;DHT22;12936;52.006;4.350;2022-12-29T06:30:12;9.60;99.90
24860;DHT22;12936;52.006;4.350;2022-12-29T06:32:41;9.60;99.90
24860;DHT22;12936;52.006;4.350;2022-12-29T06:35:09;9.50;99.90
24860;DHT22;12936;52.006;4.350;2022-12-29T06:37:37;9.50;99.90
24860;DHT22;12936;52.006;4.350;2022-12-29T06:40:06;9.50;99.90
24860;DHT22;12936;52.006;4.350;2022-12-29T06:42:36;9.50;99.90
24860;DHT22;12936;52.006;4.350;2022-12-29T06:45:05;9.50;99.90
24860;DHT22;12936;52.006;4.350;2022-12-29T06:47:34;9.40;99.90
24860;DHT22;12936;52.006;4.350;2022-12-29T06:50:02;9.40;99.90
24860;DHT22;12936;52.006;4.350;2022-12-29T06:52:31;9.40;99.90
24860;DHT22;12936;52.006;4.350;2022-12-29T06:54:59;9.40;99.90
24860;DHT22;12936;52.006;4.350;2022-12-29T06:57:27;9.30;99.90
24860;DHT22;12936;52.006;4.350;2022-12-29T06:59:56;9.40;99.90
24860;DHT22;12936;52.006;4.350;2022-12-29T07:02:24;9.30;99.90
24860;DHT22;12936;52.006;4.350;2022-12-29T07:04:53;9.30;99.90
24860;DHT22;12936;52.006;4.350;2022-12-29T07:07:21;9.30;99.90
24860;DHT22;12936;52.006;4.350;2022-12-29T07:09:49;9.40;99.90
24860;DHT22;12936;52.006;4.350;2022-12-29T07:12:17;9.40;99.90
24860;DHT22;12936;52.006;4.350;2022-12-29T07:14:45;9.40;99.90
24860;DHT22;12936;52.006;4.350;2022-12-29T07:17:14;9.40;99.90
24860;DHT22;12936;52.006;4.350;2022-12-29T07:19:42;9.40;99.90
24860;DHT22;12936;52.006;4.350;2022-12-29T07:22:11;9.40;99.90
24860;DHT22;12936;52.006;4.350;2022-12-29T07:24:39;9.40;99.90
24860;DHT22;12936;52.006;4.350;2022-12-29T07:27:08;9.40;99.90
24860;DHT22;12936;52.006;4.350;2022-12-29T07:29:36;9.40;99.90
24860;DHT22;12936;52.006;4.350;2022-12-29T07:32:04;9.40;99.90
24860;DHT22;12936;52.006;4.350;2022-12-29T07:34:34;9.40;99.90
24860;DHT22;12936;52.006;4.350;2022-12-29T07:37:02;9.50;99.90
24860;DHT22;12936;52.006;4.350;2022-12-29T07:39:30;9.50;99.90
24860;DHT22;12936;52.006;4.350;2022-12-29T07:41:58;9.50;99.90
24860;DHT22;12936;52.006;4.350;2022-12-29T07:44:30;9.50;99.90
24860;DHT22;12936;52.006;4.350;2022-12-29T07:46:59;9.50;99.90
24860;DHT22;12936;52.006;4.350;2022-12-29T07:49:28;9.50;99.90
24860;DHT22;12936;52.006;4.350;2022-12-29T07:51:57;9.50;99.90
24860;DHT22;12936;52.006;4.350;2022-12-29T07:54:25;9.50;99.90
24860;DHT22;12936;52.006;4.350;2022-12-29T07:56:53;9.60;99.90
24860;DHT22;12936;52.006;4.350;2022-12-29T07:59:21;9.60;99.90
24860;DHT22;12936;52.006;4.350;2022-12-29T08:01:49;9.60;99.90
24860;DHT22;12936;52.006;4.350;2022-12-29T08:04:18;9.50;99.90
24860;DHT22;12936;52.006;4.350;2022-12-29T08:06:46;9.60;99.90
24860;DHT22;12936;52.006;4.350;2022-12-29T08:09:16;9.60;99.90
24860;DHT22;12936;52.006;4.350;2022-12-29T08:11:50;9.60;99.90
24860;DHT22;12936;52.006;4.350;2022-12-29T08:14:18;9.60;99.90
24860;DHT22;12936;52.006;4.350;2022-12-29T08:16:46;9.60;99.90
24860;DHT22;12936;52.006;4.350;2022-12-29T08:19:14;9.60;99.90
24860;DHT22;12936;52.006;4.350;2022-12-29T08:21:42;9.60;99.90
24860;DHT22;12936;52.006;4.350;2022-12-29T08:24:11;9.50;99.90
24860;DHT22;12936;52.006;4.350;2022-12-29T08:26:40;9.50;99.90
24860;DHT22;12936;52.006;4.350;2022-12-29T08:29:08;9.60;99.90
24860;DHT22;12936;52.006;4.350;2022-12-29T08:31:36;9.50;99.90
24860;DHT22;12936;52.006;4.350;2022-12-29T08:34:04;9.50;99.90
24860;DHT22;12936;52.006;4.350;2022-12-29T08:36:33;9.50;99.90
24860;DHT22;12936;52.006;4.350;2022-12-29T08:39:01;9.50;99.90
24860;DHT22;12936;52.006;4.350;2022-12-29T08:41:29;9.50;99.90
24860;DHT22;12936;52.006;4.350;2022-12-29T08:43:58;9.50;99.90
24860;DHT22;12936;52.006;4.350;2022-12-29T08:46:26;9.50;99.90
24860;DHT22;12936;52.006;4.350;2022-12-29T08:48:54;9.50;99.90
24860;DHT22;12936;52.006;4.350;2022-12-29T08:51:22;9.50;99.90
24860;DHT22;12936;52.006;4.350;2022-12-29T08:53:51;9.60;99.90
24860;DHT22;12936;52.006;4.350;2022-12-29T08:56:19;9.50;99.90
24860;DHT22;12936;52.006;4.350;2022-12-29T08:58:47;9.50;99.90
24860;DHT22;12936;52.006;4.350;2022-12-29T09:01:17;9.50;99.90
24860;DHT22;12936;52.006;4.350;2022-12-29T09:03:45;9.60;99.90
24860;DHT22;12936;52.006;4.350;2022-12-29T09:06:34;9.50;99.90
24860;DHT22;12936;52.006;4.350;2022-12-29T09:09:06;9.50;99.90
24860;DHT22;12936;52.006;4.350;2022-12-29T09:11:34;9.60;99.90
24860;DHT22;12936;52.006;4.350;2022-12-29T09:14:02;9.60;99.90
24860;DHT22;12936;52.006;4.350;2022-12-29T09:16:32;9.60;99.90
24860;DHT22;12936;52.006;4.350;2022-12-29T09:19:00;9.60;99.90
24860;DHT22;12936;52.006;4.350;2022-12-29T09:21:28;9.60;99.90
24860;DHT22;12936;52.006;4.350;2022-12-29T09:23:56;9.60;99.90
24860;DHT22;12936;52.006;4.350;2022-12-29T09:26:25;9.60;99.90
24860;DHT22;12936;52.006;4.350;2022-12-29T09:28:53;9.60;99.90
24860;DHT22;12936;52.006;4.350;2022-12-29T09:31:21;9.60;99.90
24860;DHT22;12936;52.006;4.350;2022-12-29T09:33:50;9.70;99.90
24860;DHT22;12936;52.006;4.350;2022-12-29T09:36:18;9.70;99.90
24860;DHT22;12936;52.006;4.350;2022-12-29T09:38:46;9.70;99.90
24860;DHT22;12936;52.006;4.350;2022-12-29T09:41:19;9.70;99.90
24860;DHT22;12936;52.006;4.350;2022-12-29T09:44:03;9.80;99.90
24860;DHT22;12936;52.006;4.350;2022-12-29T09:46:34;9.80;99.90
24860;DHT22;12936;52.006;4.350;2022-12-29T09:49:16;9.90;99.90
24860;DHT22;12936;52.006;4.350;2022-12-29T09:51:50;9.90;99.90
24860;DHT22;12936;52.006;4.350;2022-12-29T09:54:40;9.90;99.90
24860;DHT22;12936;52.006;4.350;2022-12-29T09:57:18;9.90;99.90
24860;DHT22;12936;52.006;4.350;2022-12-29T09:59:51;10.00;99.90
24860;DHT22;12936;52.006;4.350;2022-12-29T10:02:32;9.90;99.90
24860;DHT22;12936;52.006;4.350;2022-12-29T10:05:04;10.00;99.90
24860;DHT22;12936;52.006;4.350;2022-12-29T10:07:45;10.00;99.90
24860;DHT22;12936;52.006;4.350;2022-12-29T10:10:25;10.00;99.90
24860;DHT22;12936;52.006;4.350;2022-12-29T10:13:01;10.00;99.90
24860;DHT22;12936;52.006;4.350;2022-12-29T10:15:44;10.00;99.90
24860;DHT22;12936;52.006;4.350;2022-12-29T10:18:38;10.00;99.90
24860;DHT22;12936;52.006;4.350;2022-12-29T10:21:20;10.00;99.90
24860;DHT22;12936;52.006;4.350;2022-12-29T10:23:52;10.00;99.90
24860;DHT22;12936;52.006;4.350;2022-12-29T10:26:23;10.00;99.90
24860;DHT22;12936;52.006;4.350;2022-12-29T10:28:56;10.00;99.90
24860;DHT22;12936;52.006;4.350;2022-12-29T10:31:29;10.00;99.90
24860;DHT22;12936;52.006;4.350;2022-12-29T10:34:03;10.00;99.90
24860;DHT22;12936;52.006;4.350;2022-12-29T10:36:38;10.00;99.90
24860;DHT22;12936;52.006;4.350;2022-12-29T10:39:16;10.00;99.90
24860;DHT22;12936;52.006;4.350;2022-12-29T10:41:49;10.10;99.90
24860;DHT22;12936;52.006;4.350;2022-12-29T10:44:19;10.10;99.90
24860;DHT22;12936;52.006;4.350;2022-12-29T10:46:56;10.10;99.90
24860;DHT22;12936;52.006;4.350;2022-12-29T10:49:27;10.10;99.90
24860;DHT22;12936;52.006;4.350;2022-12-29T10:51:59;10.20;99.90
24860;DHT22;12936;52.006;4.350;2022-12-29T10:54:33;10.20;99.90
24860;DHT22;12936;52.006;4.350;2022-12-29T10:57:08;10.30;99.90
24860;DHT22;12936;52.006;4.350;2022-12-29T10:59:37;10.30;99.90
24860;DHT22;12936;52.006;4.350;2022-12-29T11:02:28;10.40;99.90
24860;DHT22;12936;52.006;4.350;2022-12-29T11:05:02;10.40;99.90
24860;DHT22;12936;52.006;4.350;2022-12-29T11:07:36;10.40;99.90
24860;DHT22;12936;52.006;4.350;2022-12-29T11:10:18;10.50;99.90
24860;DHT22;12936;52.006;4.350;2022-12-29T11:12:58;10.50;99.90
24860;DHT22;12936;52.006;4.350;2022-12-29T11:15:26;10.50;99.90
24860;DHT22;12936;52.006;4.350;2022-12-29T11:17:57;10.50;99.90
24860;DHT22;12936;52.006;4.350;2022-12-29T11:20:30;10.50;99.90
24860;DHT22;12936;52.006;4.350;2022-12-29T11:23:00;10.40;99.90
24860;DHT22;12936;52.006;4.350;2022-12-29T11:25:28;10.40;99.90
24860;DHT22;12936;52.006;4.350;2022-12-29T11:27:59;10.40;99.90
24860;DHT22;12936;52.006;4.350;2022-12-29T11:30:29;10.40;99.90
24860;DHT22;12936;52.006;4.350;2022-12-29T11:32:59;10.30;99.90
24860;DHT22;12936;52.006;4.350;2022-12-29T11:35:33;10.30;99.90
24860;DHT22;12936;52.006;4.350;2022-12-29T11:38:04;10.30;99.90
24860;DHT22;12936;52.006;4.350;2022-12-29T11:40:33;10.20;99.90
24860;DHT22;12936;52.006;4.350;2022-12-29T11:43:05;10.10;99.90
24860;DHT22;12936;52.006;4.350;2022-12-29T11:45:35;10.20;99.90
24860;DHT22;12936;52.006;4.350;2022-12-29T11:48:07;10.10;99.90
24860;DHT22;12936;52.006;4.350;2022-12-29T11:50:38;10.10;99.90
24860;DHT22;12936;52.006;4.350;2022-12-29T11:53:15;10.10;99.90
24860;DHT22;12936;52.006;4.350;2022-12-29T11:55:52;10.10;99.90
24860;DHT22;12936;52.006;4.350;2022-12-29T11:58:20;10.20;99.90
24860;DHT22;12936;52.006;4.350;2022-12-29T12:00:49;10.20;99.90
24860;DHT22;12936;52.006;4.350;2022-12-29T12:03:19;10.20;99.90
24860;DHT22;12936;52.006;4.350;2022-12-29T12:05:51;10.20;99.90
24860;DHT22;12936;52.006;4.350;2022-12-29T12:08:36;10.20;99.90
24860;DHT22;12936;52.006;4.350;2022-12-29T12:11:10;10.20;99.90
24860;DHT22;12936;52.006;4.350;2022-12-29T12:13:43;10.20;99.90
24860;DHT22;12936;52.006;4.350;2022-12-29T12:16:17;10.20;99.90
24860;DHT22;12936;52.006;4.350;2022-12-29T12:18:48;10.20;99.90
24860;DHT22;12936;52.006;4.350;2022-12-29T12:21:23;10.30;99.90
24860;DHT22;12936;52.006;4.350;2022-12-29T12:24:27;10.30;99.90
24860;DHT22;12936;52.006;4.350;2022-12-29T12:27:01;10.30;99.90
24860;DHT22;12936;52.006;4.350;2022-12-29T12:29:35;10.40;99.90
24860;DHT22;12936;52.006;4.350;2022-12-29T12:32:13;10.40;99.90
24860;DHT22;12936;52.006;4.350;2022-12-29T12:34:43;10.40;99.90
24860;DHT22;12936;52.006;4.350;2022-12-29T12:37:39;10.50;99.90
24860;DHT22;12936;52.006;4.350;2022-12-29T12:40:30;10.50;99.90
24860;DHT22;12936;52.006;4.350;2022-12-29T12:46:17;10.50;99.90
24860;DHT22;12936;52.006;4.350;2022-12-29T12:49:03;10.50;99.90
24860;DHT22;12936;52.006;4.350;2022-12-29T12:51:38;10.50;99.90
24860;DHT22;12936;52.006;4.350;2022-12-29T12:54:19;10.50;99.90
24860;DHT22;12936;52.006;4.350;2022-12-29T12:57:01;10.50;99.90
24860;DHT22;12936;52.006;4.350;2022-12-29T12:59:42;10.60;99.90
24860;DHT22;12936;52.006;4.350;2022-12-29T13:02:21;10.60;99.90
24860;DHT22;12936;52.006;4.350;2022-12-29T13:08:09;10.60;99.90
24860;DHT22;12936;52.006;4.350;2022-12-29T13:10:42;10.70;99.90
24860;DHT22;12936;52.006;4.350;2022-12-29T13:13:45;10.60;99.90
24860;DHT22;12936;52.006;4.350;2022-12-29T13:16:24;10.60;99.90
24860;DHT22;12936;52.006;4.350;2022-12-29T13:19:00;10.60;99.90
24860;DHT22;12936;52.006;4.350;2022-12-29T13:21:37;10.60;99.90
24860;DHT22;12936;52.006;4.350;2022-12-29T13:24:19;10.60;99.90
24860;DHT22;12936;52.006;4.350;2022-12-29T13:26:53;10.60;99.90
24860;DHT22;12936;52.006;4.350;2022-12-29T13:29:30;10.50;99.90
24860;DHT22;12936;52.006;4.350;2022-12-29T13:32:13;10.60;99.90
24860;DHT22;12936;52.006;4.350;2022-12-29T13:34:48;10.50;99.90
24860;DHT22;12936;52.006;4.350;2022-12-29T13:37:26;10.50;99.90
24860;DHT22;12936;52.006;4.350;2022-12-29T13:39:58;10.50;99.90
24860;DHT22;12936;52.006;4.350;2022-12-29T13:42:28;10.50;99.90
24860;DHT22;12936;52.006;4.350;2022-12-29T13:45:01;10.50;99.90
24860;DHT22;12936;52.006;4.350;2022-12-29T13:47:34;10.40;99.90
24860;DHT22;12936;52.006;4.350;2022-12-29T13:50:11;10.40;99.90
24860;DHT22;12936;52.006;4.350;2022-12-29T13:52:51;10.40;99.90
24860;DHT22;12936;52.006;4.350;2022-12-29T13:55:27;10.40;99.90
24860;DHT22;12936;52.006;4.350;2022-12-29T13:58:02;10.30;99.90
24860;DHT22;12936;52.006;4.350;2022-12-29T14:00:38;10.30;99.90
24860;DHT22;12936;52.006;4.350;2022-12-29T14:03:39;10.20;99.90
24860;DHT22;12936;52.006;4.350;2022-12-29T14:06:16;10.30;99.90
24860;DHT22;12936;52.006;4.350;2022-12-29T14:08:48;10.30;99.90
24860;DHT22;12936;52.006;4.350;2022-12-29T14:11:18;10.20;99.90
24860;DHT22;12936;52.006;4.350;2022-12-29T14:13:48;10.30;99.90
24860;DHT22;12936;52.006;4.350;2022-12-29T14:16:30;10.20;99.90
24860;DHT22;12936;52.006;4.350;2022-12-29T14:19:21;10.10;99.90
24860;DHT22;12936;52.006;4.350;2022-12-29T14:21:52;10.10;99.90
24860;DHT22;12936;52.006;4.350;2022-12-29T14:24:39;10.10;99.90
24860;DHT22;12936;52.006;4.350;2022-12-29T14:30:47;10.00;99.90
24860;DHT22;12936;52.006;4.350;2022-12-29T14:33:17;10.00;99.90
24860;DHT22;12936;52.006;4.350;2022-12-29T14:35:49;10.00;99.90
24860;DHT22;12936;52.006;4.350;2022-12-29T14:38:22;10.00;99.90
24860;DHT22;12936;52.006;4.350;2022-12-29T14:40:51;9.90;99.90
24860;DHT22;12936;52.006;4.350;2022-12-29T14:43:24;10.00;99.90
24860;DHT22;12936;52.006;4.350;2022-12-29T14:45:56;10.00;99.90
24860;DHT22;12936;52.006;4.350;2022-12-29T14:48:37;9.90;99.90
24860;DHT22;12936;52.006;4.350;2022-12-29T14:51:24;9.90;99.90
24860;DHT22;12936;52.006;4.350;2022-12-29T14:53:54;9.90;99.90
24860;DHT22;12936;52.006;4.350;2022-12-29T14:56:26;9.90;99.90
24860;DHT22;12936;52.006;4.350;2022-12-29T14:58:57;9.90;99.90
24860;DHT22;12936;52.006;4.350;2022-12-29T15:01:36;9.90;99.90
24860;DHT22;12936;52.006;4.350;2022-12-29T15:04:15;9.90;99.90
24860;DHT22;12936;52.006;4.350;2022-12-29T15:06:45;9.90;99.90
24860;DHT22;12936;52.006;4.350;2022-12-29T15:09:23;9.90;99.90
24860;DHT22;12936;52.006;4.350;2022-12-29T15:11:54;9.90;99.90
24860;DHT22;12936;52.006;4.350;2022-12-29T15:14:34;9.90;99.90
24860;DHT22;12936;52.006;4.350;2022-12-29T15:17:10;9.90;99.90
24860;DHT22;12936;52.006;4.350;2022-12-29T15:19:40;9.90;99.90
24860;DHT22;12936;52.006;4.350;2022-12-29T15:22:09;9.90;99.90
24860;DHT22;12936;52.006;4.350;2022-12-29T15:24:41;9.80;99.90
24860;DHT22;12936;52.006;4.350;2022-12-29T15:27:13;9.90;99.90
24860;DHT22;12936;52.006;4.350;2022-12-29T15:29:43;9.80;99.90
24860;DHT22;12936;52.006;4.350;2022-12-29T15:32:20;9.80;99.90
24860;DHT22;12936;52.006;4.350;2022-12-29T15:34:52;9.80;99.90
24860;DHT22;12936;52.006;4.350;2022-12-29T15:37:28;9.80;99.90
24860;DHT22;12936;52.006;4.350;2022-12-29T15:39:56;9.70;99.90
24860;DHT22;12936;52.006;4.350;2022-12-29T15:42:33;9.70;99.90
24860;DHT22;12936;52.006;4.350;2022-12-29T15:45:03;9.70;99.90
24860;DHT22;12936;52.006;4.350;2022-12-29T15:47:38;9.70;99.90
24860;DHT22;12936;52.006;4.350;2022-12-29T15:50:19;9.60;99.90
24860;DHT22;12936;52.006;4.350;2022-12-29T15:52:49;9.60;99.90
24860;DHT22;12936;52.006;4.350;2022-12-29T15:55:21;9.60;99.90
24860;DHT22;12936;52.006;4.350;2022-12-29T15:57:49;9.60;99.90
24860;DHT22;12936;52.006;4.350;2022-12-29T16:00:25;9.50;99.90
24860;DHT22;12936;52.006;4.350;2022-12-29T16:02:54;9.50;99.90
24860;DHT22;12936;52.006;4.350;2022-12-29T16:05:24;9.40;99.90
24860;DHT22;12936;52.006;4.350;2022-12-29T16:08:00;9.40;99.90
24860;DHT22;12936;52.006;4.350;2022-12-29T16:10:32;9.40;99.90
24860;DHT22;12936;52.006;4.350;2022-12-29T16:13:05;9.40;99.90
24860;DHT22;12936;52.006;4.350;2022-12-29T16:15:34;9.30;99.90
24860;DHT22;12936;52.006;4.350;2022-12-29T16:18:02;9.30;99.90
24860;DHT22;12936;52.006;4.350;2022-12-29T16:20:38;9.30;99.90
24860;DHT22;12936;52.006;4.350;2022-12-29T16:23:17;9.20;99.90